sensor_id;sensor_type;location;lat;lon;timestamp;pressure;altitude;pressure_sealevel;temperature;humidity
55687;BME280;41911;52.362;4.978;2023-02-15T00:01:27;102960.07;;;4.75;47.78
55687;BME280;41911;52.362;4.978;2023-02-15T00:01:58;102960.48;;;4.51;47.66
55687;BME280;41911;52.362;4.978;2023-02-15T00:02:29;102960.00;;;4.89;47.55
55687;BME280;41911;52.362;4.978;2023-02-15T00:03:00;102959.95;;;5.09;47.60
55687;BME280;41911;52.362;4.978;2023-02-15T00:03:31;102961.47;;;5.07;47.64
55687;BME280;41911;52.362;4.978;2023-02-15T00:04:02;102960.12;;;5.13;47.66
55687;BME280;41911;52.362;4.978;2023-02-15T00:04:33;102960.16;;;4.84;47.69
55687;BME280;41911;52.362;4.978;2023-02-15T00:05:08;102958.37;;;5.10;47.67
55687;BME280;41911;52.362;4.978;2023-02-15T00:05:39;102958.08;;;4.79;47.70
55687;BME280;41911;52.362;4.978;2023-02-15T00:06:10;102956.28;;;4.33;47.75
55687;BME280;41911;52.362;4.978;2023-02-15T00:06:41;102958.40;;;5.04;47.79
55687;BME280;41911;52.362;4.978;2023-02-15T00:07:15;102956.16;;;5.02;47.81
55687;BME280;41911;52.362;4.978;2023-02-15T00:07:46;102958.75;;;4.45;47.84
55687;BME280;41911;52.362;4.978;2023-02-15T00:08:17;102956.09;;;5.01;47.88
55687;BME280;41911;52.362;4.978;2023-02-15T00:08:48;102956.28;;;4.70;47.84
55687;BME280;41911;52.362;4.978;2023-02-15T00:09:19;102958.89;;;4.93;47.76
55687;BME280;41911;52.362;4.978;2023-02-15T00:09:50;102954.45;;;4.90;47.75
55687;BME280;41911;52.362;4.978;2023-02-15T00:10:21;102956.18;;;4.80;47.75
55687;BME280;41911;52.362;4.978;2023-02-15T00:10:52;102954.72;;;4.87;47.72
55687;BME280;41911;52.362;4.978;2023-02-15T00:11:24;102953.42;;;4.87;47.74
55687;BME280;41911;52.362;4.978;2023-02-15T00:11:55;102950.96;;;4.79;47.76
55687;BME280;41911;52.362;4.978;2023-02-15T00:12:26;102950.70;;;4.89;47.88
55687;BME280;41911;52.362;4.978;2023-02-15T00:12:57;102948.49;;;4.87;47.83
55687;BME280;41911;52.362;4.978;2023-02-15T00:13:28;102949.40;;;4.83;47.82
55687;BME280;41911;52.362;4.978;2023-02-15T00:13:59;102947.68;;;4.25;47.88
55687;BME280;41911;52.362;4.978;2023-02-15T00:14:30;102948.10;;;4.76;47.90
55687;BME280;41911;52.362;4.978;2023-02-15T00:15:01;102944.30;;;4.55;47.92
55687;BME280;41911;52.362;4.978;2023-02-15T00:15:32;102942.49;;;4.54;47.88
55687;BME280;41911;52.362;4.978;2023-02-15T00:16:04;102945.33;;;4.80;47.88
55687;BME280;41911;52.362;4.978;2023-02-15T00:16:36;102943.71;;;4.72;47.82
55687;BME280;41911;52.362;4.978;2023-02-15T00:17:07;102944.17;;;4.78;47.80
55687;BME280;41911;52.362;4.978;2023-02-15T00:17:38;102943.00;;;4.78;47.80
55687;BME280;41911;52.362;4.978;2023-02-15T00:18:09;102943.00;;;4.77;47.85
55687;BME280;41911;52.362;4.978;2023-02-15T00:18:40;102941.62;;;4.47;47.89
55687;BME280;41911;52.362;4.978;2023-02-15T00:19:12;102942.81;;;4.74;47.87
55687;BME280;41911;52.362;4.978;2023-02-15T00:19:43;102938.71;;;4.72;47.88
55687;BME280;41911;52.362;4.978;2023-02-15T00:20:14;102936.46;;;4.71;47.91
55687;BME280;41911;52.362;4.978;2023-02-15T00:20:45;102937.88;;;4.71;47.94
55687;BME280;41911;52.362;4.978;2023-02-15T00:21:16;102936.49;;;4.42;47.94
55687;BME280;41911;52.362;4.978;2023-02-15T00:21:48;102935.38;;;4.70;47.96
55687;BME280;41911;52.362;4.978;2023-02-15T00:22:20;102934.83;;;4.69;47.97
55687;BME280;41911;52.362;4.978;2023-02-15T00:22:51;102932.92;;;4.60;47.92
55687;BME280;41911;52.362;4.978;2023-02-15T00:23:22;102934.78;;;4.29;47.86
55687;BME280;41911;52.362;4.978;2023-02-15T00:23:54;102933.86;;;4.36;47.85
55687;BME280;41911;52.362;4.978;2023-02-15T00:24:28;102934.45;;;4.65;47.92
55687;BME280;41911;52.362;4.978;2023-02-15T00:24:58;102933.96;;;4.69;48.00
55687;BME280;41911;52.362;4.978;2023-02-15T00:25:29;102936.04;;;4.59;47.94
55687;BME280;41911;52.362;4.978;2023-02-15T00:26:06;102932.04;;;4.55;47.88
55687;BME280;41911;52.362;4.978;2023-02-15T00:26:38;102933.60;;;4.59;47.92
55687;BME280;41911;52.362;4.978;2023-02-15T00:27:09;102935.07;;;4.58;47.99
55687;BME280;41911;52.362;4.978;2023-02-15T00:27:42;102935.37;;;4.57;48.02
55687;BME280;41911;52.362;4.978;2023-02-15T00:28:13;102933.23;;;4.29;47.96
55687;BME280;41911;52.362;4.978;2023-02-15T00:28:44;102933.72;;;4.58;47.98
55687;BME280;41911;52.362;4.978;2023-02-15T00:29:17;102934.77;;;4.87;47.99
55687;BME280;41911;52.362;4.978;2023-02-15T00:29:48;102934.54;;;4.59;48.00
55687;BME280;41911;52.362;4.978;2023-02-15T00:30:19;102933.44;;;4.58;48.06
55687;BME280;41911;52.362;4.978;2023-02-15T00:30:50;102931.96;;;4.58;47.93
55687;BME280;41911;52.362;4.978;2023-02-15T00:31:21;102932.65;;;4.58;47.93
55687;BME280;41911;52.362;4.978;2023-02-15T00:31:52;102933.78;;;4.85;47.93
55687;BME280;41911;52.362;4.978;2023-02-15T00:32:23;102934.49;;;4.56;47.96
55687;BME280;41911;52.362;4.978;2023-02-15T00:32:54;102933.25;;;4.54;47.93
55687;BME280;41911;52.362;4.978;2023-02-15T00:33:25;102933.66;;;4.60;47.94
55687;BME280;41911;52.362;4.978;2023-02-15T00:34:00;102934.09;;;4.51;47.95
55687;BME280;41911;52.362;4.978;2023-02-15T00:34:31;102933.09;;;4.49;47.99
55687;BME280;41911;52.362;4.978;2023-02-15T00:35:02;102935.01;;;4.48;47.99
55687;BME280;41911;52.362;4.978;2023-02-15T00:35:33;102936.61;;;4.48;47.99
55687;BME280;41911;52.362;4.978;2023-02-15T00:36:06;102934.09;;;4.78;47.96
55687;BME280;41911;52.362;4.978;2023-02-15T00:36:37;102935.51;;;4.49;47.94
55687;BME280;41911;52.362;4.978;2023-02-15T00:37:09;102931.41;;;4.53;47.94
55687;BME280;41911;52.362;4.978;2023-02-15T00:37:39;102929.56;;;4.55;47.98
55687;BME280;41911;52.362;4.978;2023-02-15T00:38:12;102932.13;;;4.51;48.02
55687;BME280;41911;52.362;4.978;2023-02-15T00:38:43;102929.45;;;4.48;48.06
55687;BME280;41911;52.362;4.978;2023-02-15T00:39:15;102928.37;;;4.46;48.08
55687;BME280;41911;52.362;4.978;2023-02-15T00:39:47;102928.63;;;4.50;48.12
55687;BME280;41911;52.362;4.978;2023-02-15T00:40:18;102928.03;;;4.48;48.12
55687;BME280;41911;52.362;4.978;2023-02-15T00:40:53;102926.81;;;4.46;48.13
55687;BME280;41911;52.362;4.978;2023-02-15T00:41:24;102923.62;;;4.37;48.09
55687;BME280;41911;52.362;4.978;2023-02-15T00:41:55;102923.63;;;4.35;48.04
55687;BME280;41911;52.362;4.978;2023-02-15T00:42:26;102924.55;;;4.61;48.03
55687;BME280;41911;52.362;4.978;2023-02-15T00:42:58;102921.68;;;4.30;48.07
55687;BME280;41911;52.362;4.978;2023-02-15T00:43:32;102922.20;;;4.20;48.06
55687;BME280;41911;52.362;4.978;2023-02-15T00:44:04;102920.89;;;4.26;48.16
55687;BME280;41911;52.362;4.978;2023-02-15T00:44:35;102920.40;;;4.29;48.16
55687;BME280;41911;52.362;4.978;2023-02-15T00:45:06;102920.19;;;4.48;48.11
55687;BME280;41911;52.362;4.978;2023-02-15T00:45:38;102917.93;;;4.26;48.23
55687;BME280;41911;52.362;4.978;2023-02-15T00:46:09;102917.16;;;4.23;48.19
55687;BME280;41911;52.362;4.978;2023-02-15T00:46:40;102918.76;;;4.13;48.23
55687;BME280;41911;52.362;4.978;2023-02-15T00:47:11;102916.25;;;4.20;48.14
55687;BME280;41911;52.362;4.978;2023-02-15T00:47:41;102914.60;;;4.17;48.11
55687;BME280;41911;52.362;4.978;2023-02-15T00:48:12;102912.93;;;4.16;48.13
55687;BME280;41911;52.362;4.978;2023-02-15T00:48:43;102912.47;;;4.36;48.06
55687;BME280;41911;52.362;4.978;2023-02-15T00:49:14;102914.50;;;4.08;48.13
55687;BME280;41911;52.362;4.978;2023-02-15T00:49:46;102915.73;;;4.47;48.20
55687;BME280;41911;52.362;4.978;2023-02-15T00:50:17;102913.13;;;4.20;48.33
55687;BME280;41911;52.362;4.978;2023-02-15T00:50:51;102912.29;;;4.53;48.34
55687;BME280;41911;52.362;4.978;2023-02-15T00:51:22;102912.11;;;4.33;48.29
55687;BME280;41911;52.362;4.978;2023-02-15T00:51:53;102910.31;;;4.34;48.29
55687;BME280;41911;52.362;4.978;2023-02-15T00:52:24;102909.75;;;4.56;48.28
55687;BME280;41911;52.362;4.978;2023-02-15T00:52:57;102908.36;;;4.26;48.23
55687;BME280;41911;52.362;4.978;2023-02-15T00:53:28;102908.82;;;4.25;48.18
55687;BME280;41911;52.362;4.978;2023-02-15T00:54:01;102907.37;;;4.54;48.22
55687;BME280;41911;52.362;4.978;2023-02-15T00:54:32;102905.15;;;4.51;48.23
55687;BME280;41911;52.362;4.978;2023-02-15T00:55:03;102906.97;;;4.23;48.10
55687;BME280;41911;52.362;4.978;2023-02-15T00:55:34;102905.01;;;4.23;48.22
55687;BME280;41911;52.362;4.978;2023-02-15T00:56:05;102906.42;;;4.27;48.27
55687;BME280;41911;52.362;4.978;2023-02-15T00:56:36;102909.11;;;4.27;48.32
55687;BME280;41911;52.362;4.978;2023-02-15T00:57:07;102907.65;;;4.59;48.32
55687;BME280;41911;52.362;4.978;2023-02-15T00:57:38;102907.50;;;4.30;48.36
55687;BME280;41911;52.362;4.978;2023-02-15T00:58:10;102908.39;;;4.56;48.32
55687;BME280;41911;52.362;4.978;2023-02-15T00:58:42;102911.97;;;4.46;48.53
55687;BME280;41911;52.362;4.978;2023-02-15T00:59:13;102913.36;;;4.31;48.52
55687;BME280;41911;52.362;4.978;2023-02-15T00:59:44;102910.91;;;4.50;48.54
55687;BME280;41911;52.362;4.978;2023-02-15T01:00:15;102912.69;;;4.51;48.59
55687;BME280;41911;52.362;4.978;2023-02-15T01:00:47;102910.74;;;4.44;48.74
55687;BME280;41911;52.362;4.978;2023-02-15T01:01:20;102910.72;;;4.25;48.80
55687;BME280;41911;52.362;4.978;2023-02-15T01:01:51;102907.97;;;4.60;48.85
55687;BME280;41911;52.362;4.978;2023-02-15T01:02:22;102907.31;;;4.36;48.95
55687;BME280;41911;52.362;4.978;2023-02-15T01:02:53;102908.03;;;4.49;48.84
55687;BME280;41911;52.362;4.978;2023-02-15T01:03:24;102905.83;;;4.68;48.84
55687;BME280;41911;52.362;4.978;2023-02-15T01:03:55;102904.94;;;4.66;48.76
55687;BME280;41911;52.362;4.978;2023-02-15T01:04:26;102905.17;;;4.35;48.72
55687;BME280;41911;52.362;4.978;2023-02-15T01:04:57;102904.43;;;4.70;48.67
55687;BME280;41911;52.362;4.978;2023-02-15T01:05:28;102904.39;;;4.75;48.62
55687;BME280;41911;52.362;4.978;2023-02-15T01:06:00;102905.30;;;4.59;48.56
55687;BME280;41911;52.362;4.978;2023-02-15T01:06:31;102903.44;;;4.34;48.61
55687;BME280;41911;52.362;4.978;2023-02-15T01:07:04;102902.98;;;4.24;48.65
55687;BME280;41911;52.362;4.978;2023-02-15T01:07:35;102902.12;;;4.52;48.67
55687;BME280;41911;52.362;4.978;2023-02-15T01:08:06;102903.45;;;4.29;48.68
55687;BME280;41911;52.362;4.978;2023-02-15T01:08:38;102903.31;;;4.30;48.63
55687;BME280;41911;52.362;4.978;2023-02-15T01:09:09;102902.50;;;4.37;48.55
55687;BME280;41911;52.362;4.978;2023-02-15T01:09:40;102900.07;;;4.60;48.58
55687;BME280;41911;52.362;4.978;2023-02-15T01:10:11;102904.59;;;4.27;48.60
55687;BME280;41911;52.362;4.978;2023-02-15T01:10:41;102903.18;;;4.53;48.61
55687;BME280;41911;52.362;4.978;2023-02-15T01:11:14;102902.40;;;4.53;48.60
55687;BME280;41911;52.362;4.978;2023-02-15T01:11:45;102904.27;;;4.60;48.67
55687;BME280;41911;52.362;4.978;2023-02-15T01:12:17;102904.15;;;4.58;48.60
55687;BME280;41911;52.362;4.978;2023-02-15T01:12:49;102902.46;;;4.46;48.56
55687;BME280;41911;52.362;4.978;2023-02-15T01:13:21;102903.51;;;4.23;48.55
55687;BME280;41911;52.362;4.978;2023-02-15T01:13:54;102903.75;;;4.24;48.53
55687;BME280;41911;52.362;4.978;2023-02-15T01:14:25;102903.04;;;4.14;48.55
55687;BME280;41911;52.362;4.978;2023-02-15T01:14:56;102902.09;;;4.44;48.49
55687;BME280;41911;52.362;4.978;2023-02-15T01:15:27;102899.42;;;4.25;48.68
55687;BME280;41911;52.362;4.978;2023-02-15T01:15:58;102899.13;;;4.30;48.65
55687;BME280;41911;52.362;4.978;2023-02-15T01:16:29;102895.55;;;4.31;48.62
55687;BME280;41911;52.362;4.978;2023-02-15T01:17:00;102894.10;;;4.96;48.77
55687;BME280;41911;52.362;4.978;2023-02-15T01:17:31;102893.46;;;4.31;48.81
55687;BME280;41911;52.362;4.978;2023-02-15T01:18:02;102893.05;;;4.59;48.76
55687;BME280;41911;52.362;4.978;2023-02-15T01:18:34;102893.64;;;4.33;48.71
55687;BME280;41911;52.362;4.978;2023-02-15T01:19:06;102893.22;;;4.29;48.65
55687;BME280;41911;52.362;4.978;2023-02-15T01:19:37;102890.44;;;4.31;48.59
55687;BME280;41911;52.362;4.978;2023-02-15T01:20:08;102891.46;;;4.18;48.59
55687;BME280;41911;52.362;4.978;2023-02-15T01:20:40;102892.52;;;4.05;48.68
55687;BME280;41911;52.362;4.978;2023-02-15T01:21:12;102891.65;;;4.27;48.66
55687;BME280;41911;52.362;4.978;2023-02-15T01:21:43;102890.26;;;4.02;48.68
55687;BME280;41911;52.362;4.978;2023-02-15T01:22:14;102890.36;;;4.23;48.69
55687;BME280;41911;52.362;4.978;2023-02-15T01:22:46;102886.37;;;4.50;48.57
55687;BME280;41911;52.362;4.978;2023-02-15T01:23:17;102887.57;;;3.93;48.44
55687;BME280;41911;52.362;4.978;2023-02-15T01:23:50;102885.44;;;4.26;48.40
55687;BME280;41911;52.362;4.978;2023-02-15T01:24:21;102883.89;;;3.86;48.45
55687;BME280;41911;52.362;4.978;2023-02-15T01:24:52;102884.21;;;4.19;48.48
55687;BME280;41911;52.362;4.978;2023-02-15T01:25:24;102884.44;;;4.18;48.58
55687;BME280;41911;52.362;4.978;2023-02-15T01:25:55;102884.42;;;4.17;48.64
55687;BME280;41911;52.362;4.978;2023-02-15T01:26:26;102885.04;;;3.79;48.71
55687;BME280;41911;52.362;4.978;2023-02-15T01:26:57;102885.67;;;3.79;48.78
55687;BME280;41911;52.362;4.978;2023-02-15T01:27:28;102886.31;;;4.15;48.82
55687;BME280;41911;52.362;4.978;2023-02-15T01:27:59;102887.60;;;4.07;48.76
55687;BME280;41911;52.362;4.978;2023-02-15T01:28:31;102887.18;;;4.10;48.83
55687;BME280;41911;52.362;4.978;2023-02-15T01:29:02;102887.70;;;4.39;48.83
55687;BME280;41911;52.362;4.978;2023-02-15T01:29:33;102889.56;;;3.79;48.86
55687;BME280;41911;52.362;4.978;2023-02-15T01:30:04;102887.49;;;4.27;48.88
55687;BME280;41911;52.362;4.978;2023-02-15T01:30:36;102888.77;;;4.05;48.92
55687;BME280;41911;52.362;4.978;2023-02-15T01:31:08;102888.16;;;3.94;48.89
55687;BME280;41911;52.362;4.978;2023-02-15T01:31:39;102887.17;;;4.34;48.91
55687;BME280;41911;52.362;4.978;2023-02-15T01:32:10;102890.17;;;4.15;48.94
55687;BME280;41911;52.362;4.978;2023-02-15T01:32:42;102889.98;;;3.90;48.90
55687;BME280;41911;52.362;4.978;2023-02-15T01:33:13;102886.53;;;3.91;49.06
55687;BME280;41911;52.362;4.978;2023-02-15T01:33:45;102887.90;;;3.64;49.02
55687;BME280;41911;52.362;4.978;2023-02-15T01:34:16;102887.89;;;3.97;48.99
55687;BME280;41911;52.362;4.978;2023-02-15T01:34:47;102886.56;;;4.06;48.97
55687;BME280;41911;52.362;4.978;2023-02-15T01:35:18;102886.64;;;4.08;49.06
55687;BME280;41911;52.362;4.978;2023-02-15T01:35:49;102884.32;;;3.96;49.10
55687;BME280;41911;52.362;4.978;2023-02-15T01:36:26;102883.75;;;4.15;49.10
55687;BME280;41911;52.362;4.978;2023-02-15T01:36:57;102882.53;;;4.11;49.03
55687;BME280;41911;52.362;4.978;2023-02-15T01:37:30;102881.97;;;4.19;49.03
55687;BME280;41911;52.362;4.978;2023-02-15T01:38:01;102879.55;;;3.85;48.97
55687;BME280;41911;52.362;4.978;2023-02-15T01:38:32;102881.38;;;4.53;48.99
55687;BME280;41911;52.362;4.978;2023-02-15T01:39:04;102877.61;;;4.18;48.97
55687;BME280;41911;52.362;4.978;2023-02-15T01:39:35;102875.42;;;4.24;48.95
55687;BME280;41911;52.362;4.978;2023-02-15T01:40:11;102874.37;;;4.22;48.94
55687;BME280;41911;52.362;4.978;2023-02-15T01:40:44;102875.04;;;4.13;48.84
55687;BME280;41911;52.362;4.978;2023-02-15T01:41:15;102873.09;;;4.10;48.80
55687;BME280;41911;52.362;4.978;2023-02-15T01:41:46;102871.94;;;4.15;48.83
55687;BME280;41911;52.362;4.978;2023-02-15T01:42:22;102870.57;;;4.06;48.79
55687;BME280;41911;52.362;4.978;2023-02-15T01:42:55;102868.13;;;4.30;48.78
55687;BME280;41911;52.362;4.978;2023-02-15T01:43:39;102865.91;;;4.09;48.67
55687;BME280;41911;52.362;4.978;2023-02-15T01:45:20;102862.24;;;4.38;48.68
55687;BME280;41911;52.362;4.978;2023-02-15T01:45:52;102863.05;;;3.99;48.72
55687;BME280;41911;52.362;4.978;2023-02-15T01:46:28;102862.00;;;3.94;48.73
55687;BME280;41911;52.362;4.978;2023-02-15T01:47:02;102862.95;;;4.38;48.68
55687;BME280;41911;52.362;4.978;2023-02-15T01:47:36;102862.57;;;3.93;48.65
55687;BME280;41911;52.362;4.978;2023-02-15T01:48:19;102862.24;;;3.71;48.69
55687;BME280;41911;52.362;4.978;2023-02-15T01:48:55;102863.10;;;4.05;48.75
55687;BME280;41911;52.362;4.978;2023-02-15T01:49:27;102861.95;;;4.32;48.76
55687;BME280;41911;52.362;4.978;2023-02-15T01:50:04;102861.41;;;4.06;48.81
55687;BME280;41911;52.362;4.978;2023-02-15T01:50:40;102861.71;;;4.01;48.90
55687;BME280;41911;52.362;4.978;2023-02-15T01:51:13;102862.51;;;4.08;48.89
55687;BME280;41911;52.362;4.978;2023-02-15T01:51:46;102861.13;;;4.01;48.81
55687;BME280;41911;52.362;4.978;2023-02-15T01:52:18;102860.97;;;4.09;48.81
55687;BME280;41911;52.362;4.978;2023-02-15T01:52:52;102861.88;;;4.31;48.83
55687;BME280;41911;52.362;4.978;2023-02-15T01:53:29;102864.39;;;3.74;48.76
55687;BME280;41911;52.362;4.978;2023-02-15T01:54:09;102862.45;;;4.09;48.72
55687;BME280;41911;52.362;4.978;2023-02-15T01:54:46;102861.44;;;3.69;48.72
55687;BME280;41911;52.362;4.978;2023-02-15T01:55:17;102861.91;;;3.68;48.73
55687;BME280;41911;52.362;4.978;2023-02-15T01:55:54;102862.01;;;4.22;48.71
55687;BME280;41911;52.362;4.978;2023-02-15T01:56:29;102860.03;;;4.28;48.68
55687;BME280;41911;52.362;4.978;2023-02-15T01:57:05;102860.55;;;3.92;48.70
55687;BME280;41911;52.362;4.978;2023-02-15T01:57:39;102860.43;;;3.67;48.68
55687;BME280;41911;52.362;4.978;2023-02-15T01:58:11;102859.35;;;3.94;48.67
55687;BME280;41911;52.362;4.978;2023-02-15T01:58:43;102860.85;;;4.14;48.67
55687;BME280;41911;52.362;4.978;2023-02-15T01:59:19;102861.29;;;4.13;48.64
55687;BME280;41911;52.362;4.978;2023-02-15T01:59:56;102862.28;;;3.85;48.67
55687;BME280;41911;52.362;4.978;2023-02-15T02:00:29;102859.71;;;3.55;48.62
55687;BME280;41911;52.362;4.978;2023-02-15T02:01:01;102861.94;;;4.07;48.52
55687;BME280;41911;52.362;4.978;2023-02-15T02:01:32;102860.38;;;3.88;48.53
55687;BME280;41911;52.362;4.978;2023-02-15T02:02:05;102856.48;;;3.88;48.54
55687;BME280;41911;52.362;4.978;2023-02-15T02:02:38;102856.55;;;4.23;48.54
55687;BME280;41911;52.362;4.978;2023-02-15T02:03:09;102855.30;;;3.92;48.55
55687;BME280;41911;52.362;4.978;2023-02-15T02:03:48;102856.14;;;3.62;48.53
55687;BME280;41911;52.362;4.978;2023-02-15T02:04:29;102852.78;;;3.89;48.54
55687;BME280;41911;52.362;4.978;2023-02-15T02:05:05;102853.74;;;4.14;48.50
55687;BME280;41911;52.362;4.978;2023-02-15T02:05:38;102851.89;;;3.67;48.54
55687;BME280;41911;52.362;4.978;2023-02-15T02:06:09;102852.68;;;3.79;48.62
55687;BME280;41911;52.362;4.978;2023-02-15T02:06:41;102851.22;;;3.68;48.61
55687;BME280;41911;52.362;4.978;2023-02-15T02:07:14;102852.40;;;3.66;48.63
55687;BME280;41911;52.362;4.978;2023-02-15T02:07:48;102852.13;;;3.98;48.52
55687;BME280;41911;52.362;4.978;2023-02-15T02:08:20;102849.75;;;3.88;48.60
55687;BME280;41911;52.362;4.978;2023-02-15T02:08:52;102851.46;;;3.27;48.56
55687;BME280;41911;52.362;4.978;2023-02-15T02:09:24;102851.43;;;3.47;48.59
55687;BME280;41911;52.362;4.978;2023-02-15T02:09:55;102850.06;;;3.61;48.67
55687;BME280;41911;52.362;4.978;2023-02-15T02:10:26;102849.22;;;3.88;48.66
55687;BME280;41911;52.362;4.978;2023-02-15T02:10:57;102849.68;;;3.80;48.62
55687;BME280;41911;52.362;4.978;2023-02-15T02:11:28;102849.08;;;3.82;48.61
55687;BME280;41911;52.362;4.978;2023-02-15T02:11:59;102851.01;;;3.62;48.64
55687;BME280;41911;52.362;4.978;2023-02-15T02:12:32;102848.31;;;3.54;48.65
55687;BME280;41911;52.362;4.978;2023-02-15T02:13:05;102849.64;;;3.48;48.67
55687;BME280;41911;52.362;4.978;2023-02-15T02:13:36;102849.48;;;3.90;48.71
55687;BME280;41911;52.362;4.978;2023-02-15T02:14:08;102847.89;;;3.91;48.63
55687;BME280;41911;52.362;4.978;2023-02-15T02:14:39;102850.16;;;3.56;48.64
55687;BME280;41911;52.362;4.978;2023-02-15T02:15:11;102848.11;;;3.61;48.66
55687;BME280;41911;52.362;4.978;2023-02-15T02:15:50;102848.81;;;3.81;48.61
55687;BME280;41911;52.362;4.978;2023-02-15T02:16:28;102850.87;;;3.87;48.62
55687;BME280;41911;52.362;4.978;2023-02-15T02:17:07;102849.96;;;3.87;48.63
55687;BME280;41911;52.362;4.978;2023-02-15T02:17:51;102848.69;;;3.81;48.63
55687;BME280;41911;52.362;4.978;2023-02-15T02:18:39;102847.78;;;3.82;48.66
55687;BME280;41911;52.362;4.978;2023-02-15T02:22:42;102838.31;;;3.97;48.63
55687;BME280;41911;52.362;4.978;2023-02-15T02:23:26;102838.04;;;3.63;48.70
55687;BME280;41911;52.362;4.978;2023-02-15T02:24:21;102836.99;;;4.03;48.59
55687;BME280;41911;52.362;4.978;2023-02-15T02:25:08;102834.84;;;3.71;48.55
55687;BME280;41911;52.362;4.978;2023-02-15T02:29:06;102835.99;;;3.97;48.63
55687;BME280;41911;52.362;4.978;2023-02-15T02:32:51;102836.89;;;3.80;48.56
55687;BME280;41911;52.362;4.978;2023-02-15T02:33:53;102837.24;;;3.93;48.65
55687;BME280;41911;52.362;4.978;2023-02-15T02:34:30;102836.78;;;4.00;48.61
55687;BME280;41911;52.362;4.978;2023-02-15T02:35:09;102839.41;;;3.66;48.64
55687;BME280;41911;52.362;4.978;2023-02-15T02:35:49;102839.97;;;3.75;48.67
55687;BME280;41911;52.362;4.978;2023-02-15T02:36:31;102838.94;;;3.64;48.80
55687;BME280;41911;52.362;4.978;2023-02-15T02:37:14;102838.44;;;3.81;48.78
55687;BME280;41911;52.362;4.978;2023-02-15T02:37:57;102837.78;;;3.75;48.86
55687;BME280;41911;52.362;4.978;2023-02-15T02:38:42;102837.28;;;4.14;48.80
55687;BME280;41911;52.362;4.978;2023-02-15T02:39:27;102833.04;;;3.80;48.73
55687;BME280;41911;52.362;4.978;2023-02-15T02:40:08;102832.90;;;4.20;48.72
55687;BME280;41911;52.362;4.978;2023-02-15T02:40:52;102828.17;;;3.98;48.70
55687;BME280;41911;52.362;4.978;2023-02-15T02:41:32;102827.73;;;4.28;48.67
55687;BME280;41911;52.362;4.978;2023-02-15T02:42:12;102825.72;;;4.33;48.66
55687;BME280;41911;52.362;4.978;2023-02-15T02:42:51;102826.00;;;3.96;48.66
55687;BME280;41911;52.362;4.978;2023-02-15T02:43:31;102824.10;;;3.96;48.61
55687;BME280;41911;52.362;4.978;2023-02-15T02:44:13;102822.80;;;4.18;48.62
55687;BME280;41911;52.362;4.978;2023-02-15T02:44:49;102824.51;;;3.86;48.59
55687;BME280;41911;52.362;4.978;2023-02-15T02:45:26;102823.37;;;4.04;48.53
55687;BME280;41911;52.362;4.978;2023-02-15T02:46:08;102823.94;;;3.63;48.49
55687;BME280;41911;52.362;4.978;2023-02-15T02:46:51;102823.63;;;3.96;48.46
55687;BME280;41911;52.362;4.978;2023-02-15T02:47:29;102825.02;;;3.93;48.47
55687;BME280;41911;52.362;4.978;2023-02-15T02:48:05;102821.74;;;3.62;48.47
55687;BME280;41911;52.362;4.978;2023-02-15T02:48:39;102821.86;;;3.64;48.43
55687;BME280;41911;52.362;4.978;2023-02-15T02:49:11;102821.42;;;3.91;48.39
55687;BME280;41911;52.362;4.978;2023-02-15T02:49:43;102820.02;;;3.92;48.43
55687;BME280;41911;52.362;4.978;2023-02-15T02:50:17;102816.94;;;3.91;48.41
55687;BME280;41911;52.362;4.978;2023-02-15T02:50:48;102817.03;;;3.84;48.42
55687;BME280;41911;52.362;4.978;2023-02-15T02:51:19;102814.70;;;3.83;48.43
55687;BME280;41911;52.362;4.978;2023-02-15T02:51:58;102814.75;;;3.82;48.45
55687;BME280;41911;52.362;4.978;2023-02-15T02:52:37;102814.97;;;3.60;48.46
55687;BME280;41911;52.362;4.978;2023-02-15T02:53:09;102814.27;;;3.81;48.43
55687;BME280;41911;52.362;4.978;2023-02-15T02:53:40;102811.17;;;3.86;48.46
55687;BME280;41911;52.362;4.978;2023-02-15T02:54:12;102812.64;;;3.86;48.40
55687;BME280;41911;52.362;4.978;2023-02-15T02:54:43;102810.82;;;3.86;48.44
55687;BME280;41911;52.362;4.978;2023-02-15T02:55:17;102811.83;;;3.80;48.43
55687;BME280;41911;52.362;4.978;2023-02-15T02:55:55;102809.11;;;3.87;48.44
55687;BME280;41911;52.362;4.978;2023-02-15T02:56:29;102807.67;;;3.84;48.41
55687;BME280;41911;52.362;4.978;2023-02-15T02:57:05;102806.09;;;3.81;48.45
55687;BME280;41911;52.362;4.978;2023-02-15T02:57:46;102803.20;;;3.80;48.40
55687;BME280;41911;52.362;4.978;2023-02-15T02:58:21;102802.21;;;3.79;48.42
55687;BME280;41911;52.362;4.978;2023-02-15T02:58:58;102800.61;;;3.15;48.40
55687;BME280;41911;52.362;4.978;2023-02-15T02:59:33;102798.20;;;3.81;48.47
55687;BME280;41911;52.362;4.978;2023-02-15T03:00:06;102796.92;;;3.82;48.47
55687;BME280;41911;52.362;4.978;2023-02-15T03:00:42;102798.00;;;3.81;48.45
55687;BME280;41911;52.362;4.978;2023-02-15T03:01:19;102796.21;;;3.51;48.36
55687;BME280;41911;52.362;4.978;2023-02-15T03:01:56;102795.49;;;3.76;48.35
55687;BME280;41911;52.362;4.978;2023-02-15T03:02:32;102796.17;;;3.76;48.32
55687;BME280;41911;52.362;4.978;2023-02-15T03:03:08;102794.09;;;3.77;48.35
55687;BME280;41911;52.362;4.978;2023-02-15T03:03:44;102791.53;;;3.66;48.40
55687;BME280;41911;52.362;4.978;2023-02-15T03:04:19;102791.50;;;3.82;48.37
55687;BME280;41911;52.362;4.978;2023-02-15T03:04:57;102793.53;;;3.81;48.38
55687;BME280;41911;52.362;4.978;2023-02-15T03:05:34;102789.07;;;3.50;48.45
55687;BME280;41911;52.362;4.978;2023-02-15T03:06:13;102786.48;;;3.49;48.43
55687;BME280;41911;52.362;4.978;2023-02-15T03:06:49;102786.23;;;3.76;48.50
55687;BME280;41911;52.362;4.978;2023-02-15T03:07:24;102785.40;;;3.64;48.42
55687;BME280;41911;52.362;4.978;2023-02-15T03:07:57;102783.35;;;3.41;48.44
55687;BME280;41911;52.362;4.978;2023-02-15T03:08:36;102785.19;;;3.66;48.39
55687;BME280;41911;52.362;4.978;2023-02-15T03:09:11;102785.48;;;3.77;48.45